EW8784 Zushi Kanagawa JP current weather conditions

sailwx.info

Wind from 011 at 8 knots gusting 15

Air temperature 5.6° C
Dewpoint 3.2° C

Last reported at 2020-Jan-17 19:05 UTC.
Time now 2020-Jan-17 20:09 UTC

Location: N 35°18' E 139°34'.
View on Google Maps.

See reports from other nearby stations

  
Tides and Currents Weather Stations Pressure Air Temp Water Temp Dewpoint Dewpoint Depression Visibility Wind Speed Wind Dir Waves Ship Positions
date/time (UTC)wind fromknots sea level pressurealtimeterstation pressurevisibilityair tempwater tempwave heightnotes
2020-Jan-17 19:05 011 8 gusting 15 5.6
2020-Jan-17 18:55 328 11 gusting 16 5.6
2020-Jan-17 18:50 354 9 gusting 18 5.6
2020-Jan-17 18:45 010 9 gusting 13 5.6
2020-Jan-17 18:40 346 7 gusting 13 5.6
2020-Jan-17 18:30 021 10 gusting 19 5.0
2020-Jan-17 18:20 056 5 gusting 8 5.0
2020-Jan-17 18:15 347 5 gusting 7 5.0
2020-Jan-17 18:10 042 7 gusting 14 5.0
2020-Jan-17 18:05 003 6 gusting 7 5.0
2020-Jan-17 18:00 037 6 gusting 9 5.6
2020-Jan-17 17:55 325 5 gusting 8 5.6
2020-Jan-17 17:50 357 5 gusting 8 5.6
2020-Jan-17 17:40 332 7 gusting 10 5.6
2020-Jan-17 17:35 013 7 gusting 14 5.6
2020-Jan-17 17:30 015 7 gusting 12 5.6
2020-Jan-17 17:25 347 6 gusting 9 5.6
2020-Jan-17 17:20 342 8 gusting 12 5.6
2020-Jan-17 17:10 015 8 gusting 12 5.6
2020-Jan-17 17:00 356 5 gusting 8 6.1
2020-Jan-17 16:55 003 6 gusting 7 6.1
2020-Jan-17 16:50 007 4 gusting 7 6.1
2020-Jan-17 16:45 020 6 gusting 8 6.1
2020-Jan-17 16:35 354 5 gusting 7 6.1
2020-Jan-17 16:30 352 3 gusting 5 6.1
2020-Jan-17 16:25 357 7 gusting 11 6.1
2020-Jan-17 16:20 345 6 gusting 9 6.1
2020-Jan-17 16:15 048 8 gusting 13 6.7
2020-Jan-17 16:10 045 6 gusting 11 6.7
2020-Jan-17 16:05 037 7 gusting 11 6.7
2020-Jan-17 15:55 045 6 gusting 8 6.7
2020-Jan-17 15:50 6.7
2020-Jan-17 15:40 343 8 gusting 14 6.7
2020-Jan-17 15:35 330 5 gusting 8 6.7
2020-Jan-17 15:30 015 6 gusting 9 6.7
2020-Jan-17 15:25 342 6 gusting 13 6.7
2020-Jan-17 15:15 352 6 gusting 12 6.7
2020-Jan-17 15:10 6.7
2020-Jan-17 15:05 335 5 gusting 8 6.7
2020-Jan-17 15:00 336 5 gusting 6 6.7
2020-Jan-17 14:50 325 4 gusting 6 7.2
2020-Jan-17 14:40 350 7 gusting 10 6.7
2020-Jan-17 14:35 045 7 gusting 11 7.2
2020-Jan-17 14:30 056 4 gusting 6 7.2
2020-Jan-17 14:25 333 7 gusting 11 7.2
2020-Jan-17 14:20 359 5 gusting 7 7.2
2020-Jan-17 14:15 359 8 gusting 13 7.2
2020-Jan-17 14:10 007 7 gusting 13 7.2
2020-Jan-17 14:05 010 3 gusting 6 7.8
2020-Jan-17 14:00 014 4 gusting 6 7.8
2020-Jan-17 13:55 001 7 gusting 10 7.8
2020-Jan-17 13:50 345 6 gusting 10 7.8
2020-Jan-17 13:45 7.8
2020-Jan-17 13:40 006 4 gusting 7 7.8
2020-Jan-17 13:30 352 3 gusting 6 7.8
2020-Jan-17 13:25 357 4 gusting 6 7.8
2020-Jan-17 13:15 359 2 gusting 4 7.8
2020-Jan-17 13:10 008 4 gusting 6 7.8
2020-Jan-17 13:05 349 3 gusting 4 7.8
2020-Jan-17 13:00 357 5 gusting 7 7.8
2020-Jan-17 12:55 308 3 gusting 6 7.8
2020-Jan-17 12:45 017 5 gusting 6 7.8
2020-Jan-17 12:35 354 5 gusting 7 7.8
2020-Jan-17 12:30 319 6 gusting 8 7.8
2020-Jan-17 12:25 035 5 gusting 8 7.8
2020-Jan-17 12:15 006 2 gusting 6 8.3
2020-Jan-17 12:10 338 7 gusting 9 8.3
2020-Jan-17 12:05 350 6 gusting 9 8.3
2020-Jan-17 12:00 346 5 gusting 8 8.9
2020-Jan-17 11:55 015 6 gusting 9 8.3
2020-Jan-17 11:50 346 2 gusting 6 8.9
2020-Jan-17 11:40 006 5 gusting 7 8.9
2020-Jan-17 11:35 018 3 gusting 6 8.9
2020-Jan-17 11:30 343 5 gusting 6 8.9
2020-Jan-17 11:20 330 2 gusting 3 8.9
2020-Jan-17 11:15 018 2 gusting 4 8.9
2020-Jan-17 11:10 010 5 gusting 7 8.9
2020-Jan-17 11:05 024 5 gusting 7 8.9
2020-Jan-17 11:00 014 2 gusting 5 8.9
2020-Jan-17 10:50 027 4 gusting 6 8.9
2020-Jan-17 10:45 302 0 gusting 2 8.9
2020-Jan-17 10:40 010 2 gusting 4 8.9
2020-Jan-17 10:35 041 5 gusting 7 8.9
2020-Jan-17 10:30 017 4 gusting 6 9.4
2020-Jan-17 10:25 013 0 gusting 1 9.4
2020-Jan-17 10:20 075 6 gusting 8 8.9
2020-Jan-17 10:15 045 4 gusting 6 9.4
2020-Jan-17 10:10 342 3 gusting 6 9.4
2020-Jan-17 10:05 353 3 gusting 6 9.4
2020-Jan-17 10:00 014 2 gusting 4 9.4
2020-Jan-17 09:55 056 3 gusting 6 9.4
2020-Jan-17 09:50 048 1 gusting 3 9.4
2020-Jan-17 09:45 015 9.4
2020-Jan-17 09:35 056 2 gusting 6 8.9
2020-Jan-17 09:30 339 1 gusting 3 8.9
2020-Jan-17 09:25 056 3 gusting 6 8.9
2020-Jan-17 09:20 018 1 gusting 6 8.9
2020-Jan-17 09:15 013 4 gusting 6 8.9
2020-Jan-17 09:10 345 5 gusting 6 8.9
2020-Jan-17 09:05 024 2 gusting 6 8.9
2020-Jan-17 09:00 329 1 gusting 3 8.9
2020-Jan-17 08:55 083 2 gusting 4 8.9
2020-Jan-17 08:50 354 0 gusting 4 8.9
2020-Jan-17 08:45 342 2 gusting 6 8.9
2020-Jan-17 08:40 023 4 gusting 7 8.9
2020-Jan-17 08:35 346 3 gusting 5 8.9
2020-Jan-17 08:30 037 4 gusting 6 8.9
2020-Jan-17 08:25 028 3 gusting 5 8.9
2020-Jan-17 08:20 037 4 gusting 6 8.9
2020-Jan-17 08:10 030 4 gusting 7 8.9
2020-Jan-17 08:00 007 2 gusting 5 8.9
2020-Jan-17 07:55 048 3 gusting 8 8.9
2020-Jan-17 07:50 004 2 gusting 6 8.9
2020-Jan-17 07:40 024 2 gusting 6 8.9
2020-Jan-17 07:35 041 5 gusting 7 8.9
2020-Jan-17 07:30 065 1 gusting 5 8.9
2020-Jan-17 07:25 8.9
2020-Jan-17 07:20 347 1 gusting 3 8.9
2020-Jan-17 07:10 018 4 gusting 6 8.9
2020-Jan-17 07:05 010 3 gusting 6 9.4
2020-Jan-17 07:00 030 4 gusting 6 9.4
2020-Jan-17 06:50 034 3 gusting 6 9.4
2020-Jan-17 06:45 032 4 gusting 7 9.4
2020-Jan-17 06:40 086 3 gusting 5 9.4
2020-Jan-17 06:35 291 3 gusting 4 9.4
2020-Jan-17 06:30 039 3 gusting 6 9.4
2020-Jan-17 06:25 072 3 gusting 6 9.4
2020-Jan-17 06:20 025 1 gusting 4 9.4
2020-Jan-17 06:15 080 1 gusting 4 9.4
2020-Jan-17 06:10 345 4 gusting 6 9.4
2020-Jan-17 06:05 014 3 gusting 7 9.4
2020-Jan-17 06:00 063 4 gusting 6 9.4
2020-Jan-17 05:55 011 3 gusting 6 9.4
2020-Jan-17 05:50 024 5 gusting 8 9.4
2020-Jan-17 05:45 013 6 gusting 8 9.4
2020-Jan-17 05:40 350 4 gusting 7 9.4
2020-Jan-17 05:35 342 3 gusting 6 9.4
2020-Jan-17 05:30 010 6 gusting 8 9.4
2020-Jan-17 05:20 039 5 gusting 7 9.4
2020-Jan-17 05:10 342 5 gusting 8 9.4
2020-Jan-17 05:05 011 4 gusting 7 9.4
2020-Jan-17 05:00 353 7 gusting 10 9.4
2020-Jan-17 04:55 008 5 gusting 8 9.4
2020-Jan-17 04:45 070 3 gusting 6 9.4
2020-Jan-17 04:40 070 5 gusting 7 10.0
2020-Jan-17 04:35 020 6 gusting 10 10.0
2020-Jan-17 04:25 004 7 gusting 10 10.0
2020-Jan-17 04:20 031 6 gusting 9 10.0
2020-Jan-17 04:15 338 8 gusting 14 10.6
2020-Jan-17 04:10 290 7 gusting 11 10.6
2020-Jan-17 04:05 356 7 gusting 12 11.1
2020-Jan-17 03:55 013 5 gusting 9 11.1
2020-Jan-17 03:50 037 6 gusting 8 11.1
2020-Jan-17 03:40 353 5 gusting 9 10.6
2020-Jan-17 03:30 001 6 gusting 10 10.0
2020-Jan-17 03:20 345 6 gusting 8 10.6
2020-Jan-17 03:15 338 4 gusting 7 10.6
2020-Jan-17 03:05 10.0
2020-Jan-17 03:00 347 5 gusting 8 10.0
2020-Jan-17 02:55 014 3 gusting 6 9.4
2020-Jan-17 02:50 030 5 gusting 10 9.4
2020-Jan-17 02:45 302 4 gusting 6 10.0
2020-Jan-17 02:40 030 4 gusting 7 9.4
2020-Jan-17 02:30 023 6 gusting 9 8.9
2020-Jan-17 02:25 046 5 gusting 9 8.9
2020-Jan-17 02:20 045 6 gusting 10 8.9
2020-Jan-17 02:10 027 4 gusting 6 8.9
2020-Jan-17 02:00 343 4 gusting 7 8.9
2020-Jan-17 01:50 025 3 gusting 5 8.9
2020-Jan-17 01:45 347 2 gusting 5 8.3
2020-Jan-17 01:40 336 5 gusting 7 8.3
2020-Jan-17 01:35 347 3 gusting 6 8.3
2020-Jan-17 01:30 003 7 gusting 9 7.8
2020-Jan-17 01:25 010 6 gusting 10 7.8
2020-Jan-17 01:20 7.8
2020-Jan-17 01:15 302 3 gusting 6 7.8
2020-Jan-17 01:10 339 2 gusting 5 7.8
2020-Jan-17 01:00 328 5 gusting 6 7.8
2020-Jan-17 00:55 321 4 gusting 6 7.2
2020-Jan-17 00:50 329 6 gusting 8 7.2
2020-Jan-17 00:45 006 5 gusting 7 7.2
2020-Jan-17 00:40 332 5 gusting 6 7.2
2020-Jan-17 00:35 006 5 gusting 6 6.7
2020-Jan-17 00:30 011 4 gusting 6 6.7
2020-Jan-17 00:25 352 5 gusting 6 6.7
2020-Jan-17 00:15 045 2 gusting 4 6.1
2020-Jan-17 00:10 336 5 gusting 7 6.1
2020-Jan-17 00:05 013 4 gusting 6 6.1
2020-Jan-16 23:55 335 5 gusting 7 6.1
2020-Jan-16 23:50 025 3 gusting 6 6.1
2020-Jan-16 23:45 015 5 gusting 7 6.1
2020-Jan-16 23:40 010 4 gusting 6 6.1
2020-Jan-16 23:30 010 2 gusting 4 6.1
2020-Jan-16 23:25 008 5 gusting 7 6.1
2020-Jan-16 23:20 008 4 gusting 5 6.1
2020-Jan-16 23:15 007 3 gusting 5 5.6
2020-Jan-16 23:10 010 6 gusting 8 5.6
2020-Jan-16 23:05 001 5 gusting 6 5.6
2020-Jan-16 22:55 011 4 gusting 5 5.6
2020-Jan-16 22:50 350 4 gusting 6 5.6
2020-Jan-16 22:45 359 4 gusting 5 5.6
2020-Jan-16 22:40 359 2 gusting 3 5.6
2020-Jan-16 22:30 346 2 gusting 3 5.6
2020-Jan-16 22:25 314 1 gusting 4 5.6
2020-Jan-16 22:20 051 5 gusting 6 5.6
2020-Jan-16 22:10 349 3 gusting 4 5.6
2020-Jan-16 22:00 345 4 gusting 6 5.6
2020-Jan-16 21:55 356 4 gusting 7 5.6
2020-Jan-16 21:45 006 2 gusting 4 5.6
2020-Jan-16 21:35 359 4 gusting 6 5.6
2020-Jan-16 21:30 346 6 gusting 8 5.6
2020-Jan-16 21:25 017 4 gusting 5 5.6
2020-Jan-16 21:20 359 6 gusting 9 5.6
2020-Jan-16 21:10 291 6 gusting 9 5.6
2020-Jan-16 21:05 021 4 gusting 6 5.6
2020-Jan-16 20:55 359 4 gusting 6 5.6
2020-Jan-16 20:50 345 4 gusting 5 5.6
2020-Jan-16 20:45 004 2 gusting 6 5.6
2020-Jan-16 20:40 330 4 gusting 6 5.6
2020-Jan-16 20:30 338 5 gusting 7 5.6
2020-Jan-16 20:25 340 6 gusting 10 5.6
2020-Jan-16 20:15 353 5 gusting 6 5.6
2020-Jan-16 20:10 5.6
2020-Jan-16 20:05 352 3 gusting 6 5.6
2020-Jan-16 20:00 013 3 gusting 6 5.6
2020-Jan-16 19:55 020 6 gusting 9 5.6
2020-Jan-16 19:45 339 6 gusting 8 5.6
2020-Jan-16 19:40 004 5 gusting 9 5.6
2020-Jan-16 19:35 356 3 gusting 5 5.6
2020-Jan-16 19:30 356 7 gusting 10 5.6
2020-Jan-16 19:25 354 5 gusting 7 5.6
2020-Jan-16 19:20 346 4 gusting 6 5.6
2020-Jan-16 19:15 325 5 gusting 8 5.6
2020-Jan-16 19:10 354 6 gusting 7 5.6
2020-Jan-16 19:00 010 6 gusting 8 5.6
2020-Jan-16 18:55 003 6 gusting 8 5.6
2020-Jan-16 18:50 330 6 gusting 9 5.6
2020-Jan-16 18:45 352 6 gusting 9 5.6
2020-Jan-16 18:40 308 7 gusting 10 6.1
2020-Jan-16 18:35 329 4 gusting 7 6.1
2020-Jan-16 18:25 354 6 gusting 7 6.1
2020-Jan-16 18:15 342 5 gusting 8 6.1
2020-Jan-16 18:10 018 4 gusting 6 6.1
2020-Jan-16 18:05 340 4 gusting 6 6.1
2020-Jan-16 18:00 004 5 gusting 6 6.1
2020-Jan-16 17:55 020 3 gusting 6 6.7
2020-Jan-16 17:50 350 4 gusting 6 6.7
2020-Jan-16 17:45 342 6 gusting 8 6.7
2020-Jan-16 17:35 359 5 gusting 8 6.7
2020-Jan-16 17:30 013 4 gusting 6 6.7
2020-Jan-16 17:25 001 6 gusting 8 6.7
2020-Jan-16 17:20 021 5 gusting 7 6.7
2020-Jan-16 17:15 6.7
2020-Jan-16 17:10 003 6 gusting 8 6.7
2020-Jan-16 17:05 321 5 gusting 8 6.7
2020-Jan-16 17:00 336 4 gusting 7 6.1
2020-Jan-16 16:50 013 5 gusting 7 6.7
2020-Jan-16 16:40 014 6 gusting 9 6.1
2020-Jan-16 16:30 004 3 gusting 5 6.7
2020-Jan-16 16:25 357 3 gusting 7 6.7
2020-Jan-16 16:20 354 3 gusting 7 6.7
2020-Jan-16 16:15 336 4 gusting 6 6.7
2020-Jan-16 16:10 013 5 gusting 8 6.7
2020-Jan-16 16:05 354 4 gusting 6 6.7
2020-Jan-16 15:55 326 3 gusting 5 6.7
2020-Jan-16 15:50 321 2 gusting 5 6.7
2020-Jan-16 15:45 346 3 gusting 4 6.7
2020-Jan-16 15:40 010 5 gusting 6 6.7
2020-Jan-16 15:35 017 5 gusting 8 6.7
2020-Jan-16 15:30 338 5 gusting 7 6.7
2020-Jan-16 15:20 357 2 gusting 4 6.7
2020-Jan-16 15:15 342 3 gusting 5 6.7
2020-Jan-16 15:10 352 2 gusting 4 6.7
2020-Jan-16 15:05 349 1 gusting 2 6.7
2020-Jan-16 14:55 349 0 gusting 1 6.7
2020-Jan-16 14:50 017 6.1
2020-Jan-16 14:45 017 1 gusting 2 6.7
2020-Jan-16 14:40 356 2 gusting 3 6.7
2020-Jan-16 14:35 359 1 gusting 2 6.1
2020-Jan-16 14:30 007 2 gusting 4 6.1
2020-Jan-16 14:20 014 4 gusting 6 6.1
2020-Jan-16 14:15 314 1 gusting 2 6.1
2020-Jan-16 14:10 339 1 gusting 2 6.1
2020-Jan-16 14:05 336 5.6
2020-Jan-16 14:00 336 5.6
2020-Jan-16 13:50 350 5.6
2020-Jan-16 13:45 350 5.6
2020-Jan-16 13:40 076 5.6
2020-Jan-16 13:30 076 5.6
2020-Jan-16 13:25 076 6.1
2020-Jan-16 13:20 076 6.1
2020-Jan-16 13:15 076 6.1
2020-Jan-16 13:10 076 6.1
2020-Jan-16 13:05 076 6.1
2020-Jan-16 13:00 076 6.1
2020-Jan-16 12:55 076 6.1
2020-Jan-16 12:45 076 6.1
2020-Jan-16 12:40 076 6.1
2020-Jan-16 12:35 076 6.1
2020-Jan-16 12:30 076 6.1
2020-Jan-16 12:25 076 6.1
2020-Jan-16 12:15 076 6.1
2020-Jan-16 12:10 076 6.7
2020-Jan-16 12:00 076 6.7
2020-Jan-16 11:50 076 6.7
2020-Jan-16 11:45 076 6.7
2020-Jan-16 11:40 076 7.2
2020-Jan-16 11:35 076 7.2
2020-Jan-16 11:30 076 7.2
2020-Jan-16 11:20 076 7.2
2020-Jan-16 11:10 076 7.8
2020-Jan-16 11:05 076 7.8
2020-Jan-16 10:55 076 7.8
2020-Jan-16 10:50 076 7.8
2020-Jan-16 10:45 076 7.8
2020-Jan-16 10:40 076 7.8
2020-Jan-16 10:35 076 7.8
2020-Jan-16 10:25 076 7.8
2020-Jan-16 10:15 076 8.3
2020-Jan-16 10:10 076 8.3
2020-Jan-16 10:05 076 8.3
2020-Jan-16 10:00 076 8.3
2020-Jan-16 09:55 076 8.3
2020-Jan-16 09:50 076 8.3
2020-Jan-16 09:45 076 8.9
2020-Jan-16 09:40 076 8.9
2020-Jan-16 09:30 076 8.9
2020-Jan-16 09:25 076 8.9
2020-Jan-16 09:15 076 8.9
2020-Jan-16 09:10 076 9.4
2020-Jan-16 09:05 076 9.4
2020-Jan-16 09:00 076 9.4
2020-Jan-16 08:50 076 10.0
2020-Jan-16 08:45 076 10.0
2020-Jan-16 08:40 076 10.0
2020-Jan-16 08:35 076 10.0
2020-Jan-16 08:30 076 10.0
2020-Jan-16 08:25 076 10.0
2020-Jan-16 08:20 076 10.0
2020-Jan-16 08:15 076 10.0
2020-Jan-16 08:05 076 10.0
2020-Jan-16 08:00 076 10.0
2020-Jan-16 07:50 076 10.0
2020-Jan-16 07:45 076 10.0
2020-Jan-16 07:40 076 10.0
2020-Jan-16 07:35 076 10.0
2020-Jan-16 07:30 076 10.0
2020-Jan-16 07:25 076 10.0
2020-Jan-16 07:20 059 10.0
2020-Jan-16 07:15 059 10.0
2020-Jan-16 07:05 091 1 gusting 3 10.0
2020-Jan-16 07:00 352 10.0
2020-Jan-16 06:55 352 10.0
2020-Jan-16 06:50 352 10.0
2020-Jan-16 06:45 352 10.0
2020-Jan-16 06:35 308 10.0
2020-Jan-16 06:30 308 10.0
2020-Jan-16 06:20 094 10.0
2020-Jan-16 06:10 169 10.6
2020-Jan-16 06:00 075 4 gusting 6 10.0
2020-Jan-16 05:55 086 10.0
2020-Jan-16 05:45 049 1 gusting 4 10.6
2020-Jan-16 05:40 046 1 gusting 4 10.6
2020-Jan-16 05:30 066 2 gusting 4 10.6
2020-Jan-16 05:20 048 3 gusting 6 10.6
2020-Jan-16 05:15 080 3 gusting 5 10.0
2020-Jan-16 05:10 030 1 gusting 2 10.6
2020-Jan-16 05:05 150 1 gusting 2 10.6
2020-Jan-16 04:55 096 3 gusting 5 10.6
2020-Jan-16 04:50 076 1 gusting 4 10.0
2020-Jan-16 04:45 342 0 gusting 2 10.6
2020-Jan-16 04:40 056 3 gusting 4 10.0
2020-Jan-16 04:35 350 2 gusting 5 10.0
2020-Jan-16 04:30 008 3 gusting 6 10.6
2020-Jan-16 04:25 062 0 gusting 2 10.0
2020-Jan-16 04:20 037 2 gusting 6 10.0
2020-Jan-16 04:15 045 2 gusting 4 10.0
2020-Jan-16 04:10 056 1 gusting 4 10.0
2020-Jan-16 04:05 340 1 gusting 3 10.0
2020-Jan-16 04:00 027 2 gusting 5 10.0
2020-Jan-16 03:55 059 3 gusting 5 10.0
2020-Jan-16 03:45 041 5 gusting 8 10.0
2020-Jan-16 03:35 039 1 gusting 3 10.0
2020-Jan-16 03:30 035 2 gusting 4 10.0
2020-Jan-16 03:20 013 10.0
2020-Jan-16 03:15 335 1 gusting 4 10.0
2020-Jan-16 03:10 056 3 gusting 5 10.0
2020-Jan-16 03:00 352 6 gusting 8 10.0
2020-Jan-16 02:55 075 3 gusting 8 10.0
2020-Jan-16 02:50 032 5 gusting 10 10.0
2020-Jan-16 02:45 347 5 gusting 8 10.6
2020-Jan-16 02:40 030 5 gusting 8 10.6
2020-Jan-16 02:30 312 4 gusting 6 10.6
2020-Jan-16 02:25 322 4 gusting 10 10.6
2020-Jan-16 02:20 032 4 gusting 7 10.0
2020-Jan-16 02:15 342 6 gusting 11 10.0
2020-Jan-16 02:10 359 6 gusting 11 10.6
2020-Jan-16 02:05 335 4 gusting 6 10.6
2020-Jan-16 02:00 006 5 gusting 7 10.6
2020-Jan-16 01:55 030 7 gusting 12 10.6
2020-Jan-16 01:45 015 5 gusting 7 10.0
2020-Jan-16 01:35 018 8 gusting 12 9.4
2020-Jan-16 01:30 024 7 gusting 14 9.4
2020-Jan-16 01:25 021 6 gusting 9 10.0
2020-Jan-16 01:20 075 6 gusting 11 10.0
2020-Jan-16 01:15 041 5 gusting 7 9.4
2020-Jan-16 01:05 030 6 gusting 9 9.4
2020-Jan-16 01:00 020 5 gusting 7 9.4
2020-Jan-16 00:55 090 5 gusting 8 9.4
2020-Jan-16 00:50 353 5 gusting 8 8.9
2020-Jan-16 00:45 357 4 gusting 6 8.9
2020-Jan-16 00:35 008 6 gusting 8 8.3
2020-Jan-16 00:30 356 6 gusting 8 8.3
2020-Jan-16 00:25 350 5 gusting 8 8.3
2020-Jan-16 00:20 063 7 gusting 9 7.8
2020-Jan-16 00:10 004 6 gusting 9 7.8
2020-Jan-16 00:00 312 6 gusting 12 7.2
2020-Jan-15 23:55 006 4 gusting 8 7.2
2020-Jan-15 23:50 030 5 gusting 8 7.2
2020-Jan-15 23:45 001 5 gusting 7 6.7
2020-Jan-15 23:35 332 3 gusting 6 6.7
2020-Jan-15 23:30 011 2 gusting 4 6.1
2020-Jan-15 23:20 037 5 gusting 7 6.1
2020-Jan-15 23:15 001 2 gusting 6 6.1
2020-Jan-15 23:10 004 3 gusting 5 5.6
2020-Jan-15 23:05 357 6 gusting 7 5.6
2020-Jan-15 22:55 008 5 gusting 6 5.0
2020-Jan-15 22:50 340 4 gusting 6 5.0
2020-Jan-15 22:45 346 3 gusting 4 5.0
2020-Jan-15 22:35 357 2 gusting 4 5.0
2020-Jan-15 22:30 004 2 gusting 3 5.0
2020-Jan-15 22:25 345 2 gusting 4 5.0
2020-Jan-15 22:20 039 4 gusting 6 5.0
2020-Jan-15 22:10 017 3 gusting 5 4.4
2020-Jan-15 22:05 359 5.0
2020-Jan-15 22:00 5.0
2020-Jan-15 21:55 5.0
2020-Jan-15 21:50 028 1 gusting 4 5.0
2020-Jan-15 21:45 357 2 gusting 4 5.0
2020-Jan-15 21:40 052 3 gusting 6 5.6
2020-Jan-15 21:30 359 3 gusting 5 5.0
2020-Jan-15 21:25 015 1 gusting 3 5.0
2020-Jan-15 21:15 008 2 gusting 5 5.6
2020-Jan-15 21:10 023 2 gusting 4 5.6
2020-Jan-15 21:05 052 2 gusting 3 5.6
2020-Jan-15 21:00 004 5 gusting 7 5.6
2020-Jan-15 20:55 350 3 gusting 5 5.6
2020-Jan-15 20:45 5.6
2020-Jan-15 20:40 336 4 gusting 6 5.6
2020-Jan-15 20:35 024 4 gusting 7 5.6
2020-Jan-15 20:30 359 0 gusting 1 5.6
2020-Jan-15 20:20 001 3 gusting 5 5.6
2020-Jan-15 20:10 004 0 gusting 3 5.6
2020-Jan-15 20:05 004 2 gusting 4 5.6
2020-Jan-15 20:00 014 1 gusting 2 5.6